Time;durP1;ratioP1;P1;durP2;ratioP2;P2;SDS_P1;SDS_P2;PMS_P1;PMS_P2;Temp;Humidity;BMP_temperature;BMP_pressure;BME280_temperature;BME280_humidity;BME280_pressure;Samples;Min_cycle;Max_cycle;Signal;HPM_P1;HPM_P2
2021/09/11 00:00:17;;;;;;;1.00;1.00;;;13.80;99.90;;;;;;5090740;28;20215;-74
2021/09/11 00:02:46;;;;;;;0.75;0.75;;;13.80;99.90;;;;;;5092686;28;20192;-74
2021/09/11 00:05:13;;;;;;;1.67;1.58;;;13.80;99.90;;;;;;5106790;28;20307;-73
2021/09/11 00:07:39;;;;;;;1.33;1.23;;;13.90;99.90;;;;;;5111542;28;20211;-73
2021/09/11 00:10:08;;;;;;;1.95;1.75;;;14.00;99.90;;;;;;5098665;28;20203;-73
2021/09/11 00:12:35;;;;;;;3.80;3.10;;;14.00;99.90;;;;;;5112373;28;20201;-73
2021/09/11 00:15:02;;;;;;;5.32;2.65;;;14.00;99.90;;;;;;5094974;28;20208;-74
2021/09/11 00:17:28;;;;;;;0.88;0.88;;;14.10;99.90;;;;;;5113260;28;20215;-73
2021/09/11 00:19:53;;;;;;;2.88;1.90;;;14.20;99.90;;;;;;5113120;28;20222;-73
2021/09/11 00:22:19;;;;;;;2.00;1.83;;;14.30;99.90;;;;;;5094606;28;20257;-73
2021/09/11 00:24:45;;;;;;;1.50;1.40;;;14.30;99.90;;;;;;5112478;28;20695;-73
2021/09/11 00:27:10;;;;;;;2.50;1.83;;;14.30;99.90;;;;;;5112566;28;20658;-73
2021/09/11 00:29:37;;;;;;;5.18;2.65;;;14.30;99.90;;;;;;5093008;28;20223;-73
2021/09/11 00:32:04;;;;;;;0.95;0.95;;;14.30;99.90;;;;;;5093840;28;20217;-73
2021/09/11 00:34:30;;;;;;;2.47;2.03;;;14.30;99.90;;;;;;5112800;28;20225;-73
2021/09/11 00:36:55;;;;;;;3.20;1.42;;;14.30;99.90;;;;;;5113079;28;20237;-73
2021/09/11 00:39:23;;;;;;;2.45;1.45;;;14.40;99.90;;;;;;5112698;28;20211;-73
2021/09/11 00:41:53;;;;;;;1.83;1.60;;;14.40;99.90;;;;;;5112719;28;20195;-73
2021/09/11 00:44:19;;;;;;;2.13;1.83;;;14.40;99.90;;;;;;5111174;28;20207;-73
2021/09/11 00:46:45;;;;;;;1.58;1.48;;;14.40;99.90;;;;;;5113956;27;20203;-73
2021/09/11 00:49:11;;;;;;;2.03;1.48;;;14.40;99.90;;;;;;5094252;28;20223;-73
2021/09/11 00:51:38;;;;;;;2.05;1.38;;;14.50;99.90;;;;;;5111131;28;20199;-73
2021/09/11 00:54:04;;;;;;;2.15;1.55;;;14.40;99.90;;;;;;5111416;28;20199;-73
2021/09/11 00:56:32;;;;;;;18.83;4.00;;;14.40;99.90;;;;;;5090712;28;20203;-72
2021/09/11 00:59:00;;;;;;;3.97;1.95;;;14.40;99.90;;;;;;5111512;28;20218;-72
2021/09/11 01:01:26;;;;;;;2.22;1.42;;;14.40;99.90;;;;;;5112848;28;20611;-73
2021/09/11 01:03:52;;;;;;;0.88;0.88;;;14.40;99.90;;;;;;5121943;22;20237;-75
2021/09/11 01:06:19;;;;;;;2.00;1.80;;;14.40;99.90;;;;;;5131718;27;20535;-75
2021/09/11 01:08:45;;;;;;;1.52;1.42;;;14.40;99.90;;;;;;5124122;27;20214;-75
2021/09/11 01:11:11;;;;;;;2.58;2.13;;;14.40;99.90;;;;;;5131888;28;20202;-75
2021/09/11 01:13:37;;;;;;;43.15;2.05;;;14.40;99.90;;;;;;5132736;28;20206;-75
2021/09/11 01:16:04;;;;;;;1.15;0.70;;;14.40;99.90;;;;;;5132299;28;20199;-74
2021/09/11 01:18:30;;;;;;;1.58;1.38;;;14.40;99.90;;;;;;5132810;27;20199;-75
2021/09/11 01:20:57;;;;;;;1.25;1.17;;;14.40;99.90;;;;;;5131559;27;20677;-75
2021/09/11 01:23:24;;;;;;;1.70;1.38;;;14.40;99.90;;;;;;5131536;27;20202;-74
2021/09/11 01:25:50;;;;;;;3.72;1.90;;;14.40;99.90;;;;;;5134046;27;20240;-75
2021/09/11 01:28:16;;;;;;;2.70;2.25;;;14.40;99.90;;;;;;5131576;27;20259;-75
2021/09/11 01:30:42;;;;;;;0.88;0.88;;;14.40;99.90;;;;;;5132550;27;20625;-75
2021/09/11 01:33:08;;;;;;;3.40;2.28;;;14.40;99.90;;;;;;5130223;27;20198;-75
2021/09/11 01:35:33;;;;;;;2.10;1.92;;;14.40;99.90;;;;;;5129779;27;20239;-75
2021/09/11 01:37:59;;;;;;;2.85;1.85;;;14.50;99.90;;;;;;5134163;27;20206;-75
2021/09/11 01:40:25;;;;;;;1.98;1.75;;;14.40;99.90;;;;;;5132820;27;20294;-75
2021/09/11 01:42:51;;;;;;;2.97;1.85;;;14.40;99.90;;;;;;5135223;27;20240;-75
2021/09/11 01:45:19;;;;;;;2.05;1.75;;;14.50;99.90;;;;;;5135649;27;20210;-75
2021/09/11 01:47:46;;;;;;;3.28;2.30;;;14.50;99.90;;;;;;5135311;27;20638;-75
2021/09/11 01:50:15;;;;;;;1.75;1.63;;;14.50;99.90;;;;;;5133872;27;20213;-75
2021/09/11 01:52:42;;;;;;;0.80;0.80;;;14.40;99.90;;;;;;5136472;27;20199;-74
2021/09/11 01:55:10;;;;;;;1.52;1.42;;;14.40;99.90;;;;;;5118489;27;20199;-75
2021/09/11 01:57:37;;;;;;;2.63;1.65;;;14.50;99.90;;;;;;5135045;27;20203;-75
2021/09/11 02:00:09;;;;;;;1.67;1.58;;;14.50;99.90;;;;;;5135070;27;20187;-77
2021/09/11 02:02:35;;;;;;;1.45;1.35;;;14.40;99.90;;;;;;5133222;27;20234;-75
2021/09/11 02:05:01;;;;;;;1.48;1.38;;;14.50;99.90;;;;;;5134767;27;20210;-75
2021/09/11 02:07:26;;;;;;;1.55;1.05;;;14.40;99.90;;;;;;5134390;27;20207;-75
2021/09/11 02:09:52;;;;;;;1.33;1.13;;;14.40;99.90;;;;;;5134831;27;20628;-75
2021/09/11 02:12:18;;;;;;;0.65;0.65;;;14.40;99.90;;;;;;5133325;27;20251;-75
2021/09/11 02:14:44;;;;;;;1.60;1.50;;;14.40;99.90;;;;;;5136005;27;20198;-75
2021/09/11 02:17:09;;;;;;;3.35;1.90;;;14.40;99.90;;;;;;5134667;27;20286;-75
2021/09/11 02:19:35;;;;;;;3.35;2.45;;;14.40;99.90;;;;;;5133603;27;20206;-75
2021/09/11 02:22:03;;;;;;;2.13;1.30;;;14.40;99.90;;;;;;5134570;27;20234;-75
2021/09/11 02:24:29;;;;;;;1.58;1.48;;;14.40;99.90;;;;;;5133596;27;20203;-76
2021/09/11 02:26:56;;;;;;;1.98;1.80;;;14.40;99.90;;;;;;5135848;27;20216;-75
2021/09/11 02:29:22;;;;;;;2.70;1.73;;;14.40;99.90;;;;;;5133086;27;20202;-76
2021/09/11 02:31:48;;;;;;;2.42;2.00;;;14.40;99.90;;;;;;5134503;27;20210;-76
2021/09/11 02:34:14;;;;;;;1.17;0.93;;;14.40;99.90;;;;;;5134589;27;20199;-76
2021/09/11 02:36:39;;;;;;;3.30;1.73;;;14.40;99.90;;;;;;5134211;27;21204;-76
2021/09/11 02:39:06;;;;;;;3.08;2.10;;;14.40;99.90;;;;;;5135587;27;20194;-76
2021/09/11 02:41:33;;;;;;;2.58;1.40;;;14.40;99.90;;;;;;5135379;27;20243;-75
2021/09/11 02:43:58;;;;;;;1.27;0.95;;;14.40;99.90;;;;;;5134206;27;20198;-76
2021/09/11 02:46:24;;;;;;;1.65;1.55;;;14.30;99.90;;;;;;5136509;27;20198;-76
2021/09/11 02:48:50;;;;;;;2.15;1.95;;;14.30;99.90;;;;;;5134722;27;20283;-76
2021/09/11 02:51:15;;;;;;;1.13;1.00;;;14.40;99.90;;;;;;5134077;27;20195;-76
2021/09/11 02:53:42;;;;;;;1.42;1.33;;;14.40;99.90;;;;;;5134284;27;20198;-76
2021/09/11 02:56:07;;;;;;;1.58;1.30;;;14.40;99.90;;;;;;5134335;27;20226;-75
2021/09/11 02:58:33;;;;;;;1.88;1.52;;;14.40;99.90;;;;;;5132538;27;20237;-75
2021/09/11 03:00:59;;;;;;;1.35;0.95;;;14.40;99.90;;;;;;5135162;27;20203;-76
2021/09/11 03:03:24;;;;;;;1.48;1.02;;;14.40;99.90;;;;;;5133683;27;20339;-75
2021/09/11 03:05:50;;;;;;;2.13;1.33;;;14.40;99.90;;;;;;5135226;27;20209;-75
2021/09/11 03:08:16;;;;;;;1.20;0.93;;;14.40;99.90;;;;;;5132310;27;20199;-76
2021/09/11 03:10:41;;;;;;;1.58;1.48;;;14.40;99.90;;;;;;5133671;27;20667;-75
2021/09/11 03:13:07;;;;;;;1.40;1.33;;;14.40;99.90;;;;;;5135036;27;20203;-76
2021/09/11 03:15:33;;;;;;;5.78;1.88;;;14.40;99.90;;;;;;5132176;27;20695;-75
2021/09/11 03:17:59;;;;;;;1.55;1.42;;;14.40;99.90;;;;;;5132453;27;20210;-74
2021/09/11 03:20:24;;;;;;;1.70;1.60;;;14.30;99.90;;;;;;5133378;27;20228;-75
2021/09/11 03:22:50;;;;;;;6.50;1.40;;;14.40;99.90;;;;;;5132253;27;20209;-75
2021/09/11 03:25:16;;;;;;;1.73;1.38;;;14.30;99.90;;;;;;5132312;27;20309;-74
2021/09/11 03:27:41;;;;;;;2.42;1.80;;;14.40;99.90;;;;;;5133179;27;20209;-74
2021/09/11 03:30:08;;;;;;;1.55;1.45;;;14.40;99.90;;;;;;5133690;27;20195;-75
2021/09/11 03:32:34;;;;;;;1.73;1.63;;;14.40;99.90;;;;;;5131924;27;20199;-75
2021/09/11 03:34:59;;;;;;;0.85;0.85;;;14.40;99.90;;;;;;5133522;27;20559;-75
2021/09/11 03:37:25;;;;;;;2.85;1.95;;;14.40;99.90;;;;;;5134719;27;20213;-75
2021/09/11 03:39:51;;;;;;;1.35;1.25;;;14.40;99.90;;;;;;5134876;27;20209;-75
2021/09/11 03:42:17;;;;;;;1.63;1.40;;;14.40;99.90;;;;;;5131828;27;20206;-74
2021/09/11 03:44:42;;;;;;;1.83;1.40;;;14.40;99.90;;;;;;5130540;27;20678;-73
2021/09/11 03:47:08;;;;;;;1.67;1.58;;;14.40;99.90;;;;;;5134382;27;20203;-74
2021/09/11 03:49:34;;;;;;;1.40;1.30;;;14.40;99.90;;;;;;5133871;27;20297;-75
2021/09/11 03:51:59;;;;;;;2.53;2.22;;;14.40;99.90;;;;;;5136020;27;20289;-75
2021/09/11 03:54:25;;;;;;;1.55;1.45;;;14.40;99.90;;;;;;5132936;27;20614;-75
2021/09/11 03:56:51;;;;;;;4.15;2.00;;;14.40;99.90;;;;;;5132148;27;20199;-74
2021/09/11 03:59:16;;;;;;;1.23;1.20;;;14.40;99.90;;;;;;5133056;27;20210;-75
2021/09/11 04:01:42;;;;;;;0.68;0.68;;;14.40;99.90;;;;;;5132404;27;20221;-75
2021/09/11 04:04:08;;;;;;;4.80;1.60;;;14.40;99.90;;;;;;5131087;27;20261;-75
2021/09/11 04:06:33;;;;;;;2.25;1.67;;;14.40;99.90;;;;;;5132544;27;20203;-75
2021/09/11 04:08:59;;;;;;;0.80;0.80;;;14.40;99.90;;;;;;5128483;27;20202;-75
2021/09/11 04:11:24;;;;;;;1.55;1.30;;;14.40;99.90;;;;;;5132378;27;20194;-74
2021/09/11 04:13:50;;;;;;;1.23;1.02;;;14.40;99.90;;;;;;5132520;27;20273;-74
2021/09/11 04:16:16;;;;;;;1.23;1.13;;;14.40;99.90;;;;;;5132425;27;20195;-76
2021/09/11 04:18:41;;;;;;;4.53;2.28;;;14.40;99.90;;;;;;5114415;27;20187;-75
2021/09/11 04:21:08;;;;;;;5.97;1.45;;;14.40;99.90;;;;;;5132679;27;20209;-75
2021/09/11 04:23:34;;;;;;;8.57;2.35;;;14.40;99.90;;;;;;5132538;27;20194;-75
2021/09/11 04:25:59;;;;;;;15.50;2.90;;;14.40;99.90;;;;;;5133916;27;20209;-74
2021/09/11 04:28:25;;;;;;;1.58;1.48;;;14.40;99.90;;;;;;5130694;27;20685;-74
2021/09/11 04:30:51;;;;;;;3.88;1.83;;;14.40;99.90;;;;;;5133810;27;20680;-75
2021/09/11 04:33:16;;;;;;;1.15;1.13;;;14.40;99.90;;;;;;5134985;27;20573;-74
2021/09/11 04:35:42;;;;;;;1.42;1.33;;;14.40;99.90;;;;;;5132101;27;20247;-74
2021/09/11 04:38:08;;;;;;;1.08;1.00;;;14.40;99.90;;;;;;5131964;27;20234;-74
2021/09/11 04:40:33;;;;;;;1.75;1.20;;;14.40;99.90;;;;;;5133035;27;20244;-74
2021/09/11 04:42:59;;;;;;;1.42;1.33;;;14.30;99.90;;;;;;5133375;27;20259;-74
2021/09/11 04:45:26;;;;;;;0.70;0.70;;;14.30;99.90;;;;;;5132955;27;20691;-74
2021/09/11 04:47:51;;;;;;;3.33;1.58;;;14.40;99.90;;;;;;5129469;27;20215;-74
2021/09/11 04:50:18;;;;;;;1.13;1.02;;;14.40;99.90;;;;;;5132163;27;20246;-75
2021/09/11 04:52:44;;;;;;;1.35;1.25;;;14.40;99.90;;;;;;5133072;27;20198;-75
2021/09/11 04:55:10;;;;;;;0.82;0.82;;;14.40;99.90;;;;;;5132534;27;20246;-75
2021/09/11 04:57:36;;;;;;;2.72;1.38;;;14.40;99.90;;;;;;5131808;27;20198;-75
2021/09/11 05:00:06;;;;;;;1.25;1.15;;;14.40;99.90;;;;;;5132055;27;20198;-75
2021/09/11 05:02:32;;;;;;;1.33;1.25;;;14.40;99.90;;;;;;5131116;27;20226;-75
2021/09/11 05:04:57;;;;;;;2.28;2.08;;;14.40;99.90;;;;;;5132004;27;20282;-75
2021/09/11 05:07:24;;;;;;;0.88;0.88;;;14.40;99.90;;;;;;5131948;27;20249;-76
2021/09/11 05:09:50;;;;;;;0.80;0.80;;;14.50;99.90;;;;;;5116539;27;20235;-75
2021/09/11 05:12:16;;;;;;;0.88;0.85;;;14.50;99.90;;;;;;5132819;27;20201;-77
2021/09/11 05:14:42;;;;;;;1.50;1.40;;;14.50;99.90;;;;;;5133516;27;20203;-75
2021/09/11 05:17:07;;;;;;;1.10;1.10;;;14.50;99.90;;;;;;5132168;28;20206;-76
2021/09/11 05:19:33;;;;;;;1.75;1.15;;;14.50;99.90;;;;;;5132551;27;20606;-76
2021/09/11 05:21:59;;;;;;;2.42;1.25;;;14.40;99.90;;;;;;5132552;27;20635;-76
2021/09/11 05:24:25;;;;;;;0.98;0.98;;;14.50;99.90;;;;;;5132217;27;20206;-76
2021/09/11 05:26:51;;;;;;;4.22;1.20;;;14.50;99.90;;;;;;5131980;27;20241;-76
2021/09/11 05:29:16;;;;;;;1.55;1.45;;;14.50;99.90;;;;;;5131712;27;20214;-76
2021/09/11 05:31:42;;;;;;;1.30;1.20;;;14.50;99.90;;;;;;5131349;27;20191;-75
2021/09/11 05:34:08;;;;;;;1.08;1.00;;;14.50;99.90;;;;;;5132867;27;20231;-75
2021/09/11 05:36:34;;;;;;;1.67;1.58;;;14.50;99.90;;;;;;5131138;27;20274;-76
2021/09/11 05:39:00;;;;;;;0.98;0.98;;;14.50;99.90;;;;;;5131432;27;20287;-75
2021/09/11 05:41:26;;;;;;;1.40;1.30;;;14.50;99.90;;;;;;5129892;27;20195;-75
2021/09/11 05:43:52;;;;;;;2.03;1.40;;;14.50;99.90;;;;;;5133043;27;20202;-75
2021/09/11 05:46:18;;;;;;;1.15;1.08;;;14.50;99.90;;;;;;5129930;28;20554;-75
2021/09/11 05:48:44;;;;;;;1.35;1.17;;;14.50;99.90;;;;;;5131232;27;20619;-74
2021/09/11 05:51:09;;;;;;;2.25;2.03;;;14.60;99.90;;;;;;5131320;27;20202;-75
2021/09/11 05:53:35;;;;;;;0.80;0.80;;;14.60;99.90;;;;;;5131141;27;20560;-75
2021/09/11 05:56:01;;;;;;;1.80;1.40;;;14.60;99.90;;;;;;5131771;27;20656;-75
2021/09/11 05:58:27;;;;;;;1.50;1.40;;;14.70;99.90;;;;;;5132445;27;20206;-75
2021/09/11 06:00:53;;;;;;;1.30;1.20;;;14.70;99.90;;;;;;5132244;27;20226;-75
2021/09/11 06:03:18;;;;;;;1.27;1.17;;;14.70;99.90;;;;;;5130820;27;20568;-75
2021/09/11 06:05:44;;;;;;;1.27;0.95;;;14.70;99.90;;;;;;5131121;27;20199;-75
2021/09/11 06:08:10;;;;;;;3.72;1.92;;;14.70;99.90;;;;;;5126707;27;20256;-75
2021/09/11 06:10:36;;;;;;;1.15;0.90;;;14.80;99.90;;;;;;5128325;27;20546;-75
2021/09/11 06:13:01;;;;;;;2.30;1.30;;;14.90;99.90;;;;;;5132309;27;20241;-75
2021/09/11 06:15:28;;;;;;;0.65;0.65;;;14.90;99.90;;;;;;5132258;27;20227;-75
2021/09/11 06:17:54;;;;;;;4.50;1.40;;;14.90;99.90;;;;;;5130620;28;20687;-75
2021/09/11 06:20:19;;;;;;;3.15;2.00;;;15.00;99.90;;;;;;5132511;27;20226;-75
2021/09/11 06:22:46;;;;;;;2.13;1.55;;;15.00;99.90;;;;;;5131075;27;20250;-75
2021/09/11 06:25:13;;;;;;;3.58;2.63;;;15.10;99.90;;;;;;5133672;27;20207;-75
2021/09/11 06:27:40;;;;;;;1.75;1.65;;;15.10;99.90;;;;;;5134212;27;20689;-75
2021/09/11 06:30:11;;;;;;;3.25;1.77;;;15.20;99.90;;;;;;5135917;27;20672;-75
2021/09/11 06:32:37;;;;;;;2.58;1.88;;;15.30;99.90;;;;;;5135959;27;20190;-75
2021/09/11 06:35:04;;;;;;;1.88;1.55;;;15.30;99.90;;;;;;5135960;27;20202;-75
2021/09/11 06:37:30;;;;;;;4.63;2.20;;;15.30;99.90;;;;;;5136693;27;20194;-75
2021/09/11 06:39:56;;;;;;;1.00;1.00;;;15.30;99.90;;;;;;5134618;27;20207;-75
2021/09/11 06:42:21;;;;;;;2.45;1.92;;;15.40;99.90;;;;;;5137900;27;20748;-75
2021/09/11 06:44:47;;;;;;;3.38;2.85;;;15.30;99.90;;;;;;5135019;27;20202;-75
2021/09/11 06:47:13;;;;;;;2.25;1.98;;;15.30;99.90;;;;;;5135452;27;20289;-75
2021/09/11 06:49:40;;;;;;;2.67;1.60;;;15.20;99.90;;;;;;5135079;27;20221;-75
2021/09/11 06:52:06;;;;;;;2.17;1.23;;;15.30;99.90;;;;;;5135507;27;20286;-75
2021/09/11 06:54:32;;;;;;;1.00;1.00;;;15.30;99.90;;;;;;5135213;27;20640;-76
2021/09/11 06:56:58;;;;;;;0.90;0.90;;;15.40;99.90;;;;;;5135537;27;20689;-75
2021/09/11 06:59:23;;;;;;;5.57;2.38;;;15.50;99.90;;;;;;5135263;27;20207;-75
2021/09/11 07:01:49;;;;;;;1.60;1.50;;;15.60;99.90;;;;;;5135113;27;20334;-75
2021/09/11 07:04:15;;;;;;;2.63;1.27;;;15.60;99.90;;;;;;5132519;27;20210;-75
2021/09/11 07:06:40;;;;;;;2.08;1.52;;;15.70;99.90;;;;;;5135127;27;20661;-75
2021/09/11 07:09:06;;;;;;;0.98;0.95;;;15.70;99.90;;;;;;5132633;27;20214;-75
2021/09/11 07:11:32;;;;;;;0.82;0.82;;;15.80;99.90;;;;;;5132439;27;20206;-75
2021/09/11 07:13:58;;;;;;;0.75;0.75;;;15.80;99.90;;;;;;5133885;27;20204;-75
2021/09/11 07:16:23;;;;;;;1.52;1.20;;;15.90;99.90;;;;;;5133695;27;20205;-75
2021/09/11 07:18:49;;;;;;;5.40;1.35;;;15.90;99.90;;;;;;5135311;27;20221;-75
2021/09/11 07:21:15;;;;;;;2.50;1.88;;;15.90;99.90;;;;;;5133713;27;20201;-75
2021/09/11 07:23:41;;;;;;;1.50;1.25;;;15.90;99.90;;;;;;5130982;27;20223;-75
2021/09/11 07:26:06;;;;;;;1.17;1.00;;;15.90;99.90;;;;;;5132480;27;20257;-75
2021/09/11 07:28:32;;;;;;;2.13;1.45;;;15.90;99.90;;;;;;5134675;27;20766;-75
2021/09/11 07:30:58;;;;;;;1.65;1.55;;;15.90;99.90;;;;;;5138599;27;20190;-76
2021/09/11 07:33:24;;;;;;;2.05;1.35;;;15.80;99.90;;;;;;5135182;27;20199;-75
2021/09/11 07:35:49;;;;;;;1.80;1.70;;;15.80;99.90;;;;;;5133677;27;20199;-75
2021/09/11 07:38:15;;;;;;;5.47;2.58;;;15.90;99.90;;;;;;5133734;27;20203;-75
2021/09/11 07:40:42;;;;;;;1.15;1.08;;;15.90;99.90;;;;;;5130090;27;20206;-75
2021/09/11 07:43:09;;;;;;;2.58;1.70;;;15.90;99.90;;;;;;5134862;27;20608;-76
2021/09/11 07:45:39;;;;;;;2.05;1.80;;;15.80;99.90;;;;;;5133757;27;20202;-73
2021/09/11 07:48:06;;;;;;;2.83;2.40;;;15.90;99.90;;;;;;5132003;27;20280;-73
2021/09/11 07:50:35;;;;;;;3.08;1.83;;;15.90;99.90;;;;;;5132836;27;20203;-74
2021/09/11 07:53:04;;;;;;;2.70;1.73;;;15.90;99.90;;;;;;5133225;27;20206;-74
2021/09/11 07:55:31;;;;;;;5.05;1.63;;;16.00;99.90;;;;;;5134067;27;20195;-74
2021/09/11 07:57:57;;;;;;;5.30;1.27;;;16.00;99.90;;;;;;5131916;27;20198;-74
2021/09/11 08:00:23;;;;;;;1.25;1.15;;;15.90;99.90;;;;;;5131551;27;20565;-74
2021/09/11 08:02:49;;;;;;;0.82;0.82;;;16.00;99.90;;;;;;5134164;27;20258;-74
2021/09/11 08:05:15;;;;;;;3.13;1.50;;;16.00;99.90;;;;;;5132871;27;20271;-74
2021/09/11 08:07:40;;;;;;;1.00;0.90;;;16.10;99.90;;;;;;5132703;27;20537;-75
2021/09/11 08:10:07;;;;;;;1.42;1.33;;;16.10;99.90;;;;;;5134025;27;20194;-74
2021/09/11 08:12:32;;;;;;;1.98;1.38;;;16.10;99.90;;;;;;5131392;27;20199;-74
2021/09/11 08:14:59;;;;;;;3.25;1.88;;;16.00;99.90;;;;;;5131355;27;20684;-73
2021/09/11 08:17:24;;;;;;;1.38;1.27;;;16.00;99.90;;;;;;5131440;27;20192;-76
2021/09/11 08:19:53;;;;;;;2.17;1.35;;;16.00;99.90;;;;;;5132901;27;20194;-73
2021/09/11 08:22:19;;;;;;;4.53;1.85;;;15.90;99.90;;;;;;5132957;27;20207;-74
2021/09/11 08:24:44;;;;;;;0.80;0.80;;;16.00;99.90;;;;;;5132206;27;20199;-73
2021/09/11 08:27:10;;;;;;;0.77;0.77;;;16.00;99.90;;;;;;5139694;27;20201;-74
2021/09/11 08:29:36;;;;;;;1.52;1.42;;;16.00;99.90;;;;;;5132702;27;20207;-74
2021/09/11 08:32:03;;;;;;;1.45;1.35;;;16.00;99.90;;;;;;5131138;27;20203;-73
2021/09/11 08:34:29;;;;;;;1.75;1.52;;;16.00;99.90;;;;;;5133350;27;20237;-74
2021/09/11 08:36:54;;;;;;;1.48;1.38;;;16.00;99.90;;;;;;5131560;27;20245;-74
2021/09/11 08:39:24;;;;;;;4.57;2.33;;;16.00;99.90;;;;;;5132288;27;20202;-75
2021/09/11 08:41:54;;;;;;;2.20;1.85;;;16.10;99.90;;;;;;5133856;27;20255;-74
2021/09/11 08:44:19;;;;;;;1.80;1.65;;;16.10;99.90;;;;;;5132100;27;20198;-74
2021/09/11 08:46:48;;;;;;;3.47;1.55;;;16.10;99.90;;;;;;5131843;27;20301;-74
2021/09/11 08:49:15;;;;;;;7.10;1.10;;;16.10;99.90;;;;;;5133757;27;20258;-74
2021/09/11 08:51:40;;;;;;;3.50;1.15;;;16.00;99.90;;;;;;5132196;27;20740;-74
2021/09/11 08:54:06;;;;;;;0.80;0.80;;;16.00;99.90;;;;;;5133756;27;20222;-74
2021/09/11 08:56:39;;;;;;;0.63;0.63;;;16.00;99.90;;;;;;5130420;27;20233;-74
2021/09/11 08:59:07;;;;;;;5.30;2.22;;;16.10;99.90;;;;;;5131975;27;20683;-73
2021/09/11 09:01:32;;;;;;;1.13;1.10;;;16.10;99.90;;;;;;5132986;27;20735;-74
2021/09/11 09:03:58;;;;;;;2.05;1.13;;;16.10;99.90;;;;;;5131963;27;20274;-74
2021/09/11 09:06:27;;;;;;;4.07;1.65;;;16.10;99.90;;;;;;5133160;27;20282;-74
2021/09/11 09:09:11;;;;;;;1.95;1.70;;;16.10;99.90;;;;;;5133129;27;20199;-74
2021/09/11 09:11:42;;;;;;;1.30;1.20;;;16.20;99.90;;;;;;5132720;27;20295;-73
2021/09/11 09:14:14;;;;;;;1.35;0.82;;;16.20;99.90;;;;;;5134257;27;20191;-74
2021/09/11 09:16:53;;;;;;;1.48;1.38;;;16.20;99.90;;;;;;5134083;27;20213;-74
2021/09/11 09:19:20;;;;;;;3.70;1.02;;;16.20;99.90;;;;;;5134293;28;20198;-75
2021/09/11 09:21:47;;;;;;;1.95;1.70;;;16.30;99.90;;;;;;5132108;27;20195;-74
2021/09/11 09:24:35;;;;;;;2.40;1.33;;;16.40;99.90;;;;;;5124736;27;20256;-75
2021/09/11 09:27:07;;;;;;;1.95;1.45;;;16.50;99.90;;;;;;5132455;27;20225;-73
2021/09/11 09:29:37;;;;;;;0.98;0.88;;;16.60;99.90;;;;;;5134137;27;20202;-74
2021/09/11 09:32:04;;;;;;;2.25;1.65;;;16.60;99.90;;;;;;5131394;27;20224;-74
2021/09/11 09:34:44;;;;;;;1.63;1.52;;;16.70;99.90;;;;;;5131536;27;20195;-74
2021/09/11 09:37:14;;;;;;;0.73;0.73;;;16.80;99.90;;;;;;5133183;27;20195;-74
2021/09/11 09:39:49;;;;;;;0.65;0.65;;;16.90;99.90;;;;;;5130257;27;20293;-74
2021/09/11 09:42:16;;;;;;;2.80;1.55;;;16.90;99.90;;;;;;5133126;27;20691;-74
2021/09/11 09:44:54;;;;;;;4.53;2.05;;;17.00;99.90;;;;;;5130245;27;20223;-74
2021/09/11 09:47:24;;;;;;;1.60;1.50;;;17.00;99.90;;;;;;5131553;27;20202;-75
2021/09/11 09:50:10;;;;;;;5.97;1.65;;;16.90;99.90;;;;;;5130081;27;20603;-74
2021/09/11 09:52:37;;;;;;;1.33;1.15;;;16.80;99.90;;;;;;5131145;27;20621;-74
2021/09/11 09:55:05;;;;;;;1.63;1.52;;;16.80;99.90;;;;;;5132075;27;20199;-74
2021/09/11 09:57:31;;;;;;;1.00;0.90;;;16.70;99.90;;;;;;5131707;27;20203;-76
2021/09/11 09:59:58;;;;;;;2.38;1.35;;;16.80;99.90;;;;;;5137703;27;20212;-76
2021/09/11 10:02:24;;;;;;;0.82;0.70;;;16.80;99.90;;;;;;5132859;27;20685;-74
2021/09/11 10:04:51;;;;;;;2.15;1.48;;;16.90;99.90;;;;;;5137157;27;20215;-74
2021/09/11 10:07:20;;;;;;;0.90;0.88;;;16.90;99.90;;;;;;5136432;27;20241;-74
2021/09/11 10:09:50;;;;;;;2.17;1.35;;;16.90;99.90;;;;;;5136130;27;20255;-73
2021/09/11 10:12:36;;;;;;;2.75;1.40;;;16.90;99.90;;;;;;5135149;27;20199;-74
2021/09/11 10:15:35;;;;;;;1.40;0.75;;;16.80;99.90;;;;;;5136292;27;20677;-73
2021/09/11 10:18:03;;;;;;;1.70;1.35;;;16.80;99.90;;;;;;5116785;27;20192;-73
2021/09/11 10:20:48;;;;;;;2.78;1.98;;;16.90;99.90;;;;;;5135196;27;20198;-74
2021/09/11 10:23:14;;;;;;;5.05;1.85;;;16.90;99.90;;;;;;5119412;27;20207;-74
2021/09/11 10:25:41;;;;;;;1.55;1.45;;;16.90;99.90;;;;;;5134810;27;20210;-74
2021/09/11 10:28:18;;;;;;;6.22;1.77;;;17.00;99.90;;;;;;5133524;27;20198;-74
2021/09/11 10:31:16;;;;;;;2.58;1.90;;;17.00;99.90;;;;;;5116907;27;20204;-74
2021/09/11 10:33:45;;;;;;;1.13;1.05;;;17.10;99.90;;;;;;5087031;27;20203;-73
2021/09/11 10:36:46;;;;;;;2.95;2.35;;;17.20;99.90;;;;;;5134819;27;20194;-73
2021/09/11 10:39:12;;;;;;;1.05;0.98;;;17.30;99.90;;;;;;5090480;27;20216;-74
2021/09/11 10:41:38;;;;;;;3.70;2.40;;;17.30;99.90;;;;;;5134236;27;20202;-73
2021/09/11 10:44:06;;;;;;;1.98;1.88;;;17.40;99.90;;;;;;5133149;27;20668;-73
2021/09/11 10:46:50;;;;;;;2.60;1.25;;;17.40;99.90;;;;;;5134600;27;20215;-74
2021/09/11 10:49:29;;;;;;;1.85;1.60;;;17.40;99.90;;;;;;5132969;27;20217;-75
2021/09/11 10:52:10;;;;;;;6.57;2.15;;;17.40;99.90;;;;;;5134724;27;20199;-75
2021/09/11 10:54:43;;;;;;;1.55;1.40;;;17.40;99.90;;;;;;5134262;27;20191;-73
2021/09/11 10:57:10;;;;;;;1.30;1.23;;;17.40;99.90;;;;;;5133014;27;20571;-74
2021/09/11 10:59:40;;;;;;;2.20;1.23;;;17.50;99.90;;;;;;5135224;27;20221;-74
2021/09/11 11:02:10;;;;;;;4.75;2.60;;;17.60;99.90;;;;;;5132276;27;20226;-74
2021/09/11 11:04:40;;;;;;;0.80;0.80;;;17.60;99.90;;;;;;5133900;27;20221;-74
2021/09/11 11:07:11;;;;;;;2.00;1.20;;;17.60;99.90;;;;;;5132479;27;20202;-74
2021/09/11 11:09:42;;;;;;;1.88;1.48;;;17.70;99.90;;;;;;5124318;27;20206;-74
2021/09/11 11:12:09;;;;;;;1.33;1.23;;;17.70;99.90;;;;;;5133913;27;20248;-74
2021/09/11 11:14:40;;;;;;;1.45;0.75;;;17.80;99.90;;;;;;5131383;27;20213;-73
2021/09/11 11:17:05;;;;;;;0.60;0.60;;;17.90;99.90;;;;;;5132401;27;20195;-74
2021/09/11 11:19:33;;;;;;;1.75;1.08;;;18.00;99.90;;;;;;5132476;27;20546;-74
2021/09/11 11:22:08;;;;;;;1.00;1.00;;;18.20;99.90;;;;;;5134105;27;20203;-76
2021/09/11 11:24:37;;;;;;;1.75;0.98;;;18.50;99.90;;;;;;5133058;27;20629;-77
2021/09/11 11:27:06;;;;;;;1.80;1.40;;;18.80;99.90;;;;;;5134068;27;20228;-78
2021/09/11 11:29:33;;;;;;;1.92;1.77;;;18.90;99.90;;;;;;5134857;27;20795;-79
2021/09/11 11:32:04;;;;;;;1.50;1.30;;;19.20;99.90;;;;;;5132862;27;20601;-75
2021/09/11 11:34:30;;;;;;;2.42;0.95;;;19.10;99.90;;;;;;5133408;27;20229;-75
2021/09/11 11:37:01;;;;;;;1.33;1.20;;;19.20;99.90;;;;;;5132118;27;20198;-76
2021/09/11 11:39:37;;;;;;;2.08;1.33;;;19.30;99.90;;;;;;5135877;27;20203;-76
2021/09/11 11:42:09;;;;;;;0.88;0.88;;;19.30;99.90;;;;;;5135097;27;20235;-76
2021/09/11 11:44:44;;;;;;;1.67;1.10;;;19.50;99.90;;;;;;5134155;27;20203;-76
2021/09/11 11:47:40;;;;;;;2.80;2.03;;;19.70;99.90;;;;;;5134997;27;20209;-76
2021/09/11 11:50:17;;;;;;;4.68;1.42;;;19.60;99.90;;;;;;5116200;27;20207;-76
2021/09/11 11:52:44;;;;;;;1.52;1.00;;;19.60;99.90;;;;;;5117186;27;20190;-76
2021/09/11 11:55:13;;;;;;;3.80;1.83;;;19.50;99.90;;;;;;5116018;27;20688;-76
2021/09/11 11:57:39;;;;;;;1.88;0.82;;;19.50;99.90;;;;;;5133760;27;20198;-78
2021/09/11 12:00:16;;;;;;;3.50;2.10;;;19.50;99.90;;;;;;5133104;27;20285;-78
2021/09/11 12:02:48;;;;;;;7.07;2.42;;;19.20;99.90;;;;;;5132090;27;20586;-79
2021/09/11 12:05:25;;;;;;;7.18;2.42;;;18.90;99.90;;;;;;5133840;27;20577;-78
2021/09/11 12:08:05;;;;;;;1.25;1.15;;;18.70;99.90;;;;;;5133909;27;20676;-76
2021/09/11 12:10:33;;;;;;;1.15;0.98;;;18.30;99.90;;;;;;5132643;27;20573;-76
2021/09/11 12:13:09;;;;;;;1.45;1.35;;;17.80;99.90;;;;;;5133203;27;20721;-77
2021/09/11 12:15:38;;;;;;;1.15;1.13;;;17.60;99.90;;;;;;5131525;27;20653;-77
2021/09/11 12:18:12;;;;;;;1.20;0.90;;;17.80;99.90;;;;;;5133518;27;20532;-78
2021/09/11 12:20:46;;;;;;;2.53;1.85;;;17.80;99.90;;;;;;5136750;27;20247;-80
2021/09/11 12:23:14;;;;;;;5.22;2.92;;;17.80;99.90;;;;;;5134677;27;20210;-79
2021/09/11 12:25:55;;;;;;;6.22;2.90;;;17.70;99.90;;;;;;5134402;27;20612;-80
2021/09/11 12:28:39;;;;;;;1.00;0.90;;;17.80;99.90;;;;;;5134224;27;20230;-79
2021/09/11 12:31:10;;;;;;;1.30;1.20;;;17.90;99.90;;;;;;5117543;27;20291;-79
2021/09/11 12:33:57;;;;;;;2.20;1.95;;;17.70;99.90;;;;;;5117193;27;20213;-80
2021/09/11 12:36:35;;;;;;;1.95;1.50;;;17.70;99.90;;;;;;5121335;27;20202;-79
2021/09/11 12:39:08;;;;;;;1.48;1.38;;;17.80;99.90;;;;;;5134485;27;20198;-81
2021/09/11 12:41:37;;;;;;;5.18;1.73;;;17.80;99.90;;;;;;5134084;27;20198;-79
2021/09/11 12:44:03;;;;;;;0.90;0.90;;;17.80;99.90;;;;;;5132171;27;20207;-81
2021/09/11 12:46:39;;;;;;;1.30;1.17;;;17.80;99.90;;;;;;5132679;27;20557;-80
2021/09/11 12:49:10;;;;;;;1.83;1.02;;;17.80;99.90;;;;;;5114936;27;20255;-79